Time;durP1;ratioP1;P1;durP2;ratioP2;P2;SDS_P1;SDS_P2;PMS_P1;PMS_P2;Temp;Humidity;BMP_temperature;BMP_pressure;BME280_temperature;BME280_humidity;BME280_pressure;Samples;Min_cycle;Max_cycle;Signal;HPM_P1;HPM_P2
2023/07/31 00:02:19;;;;;;;4.10;3.30;;;;;;;18.11;100.00;99212.59;5072754;28;20086;-86
2023/07/31 00:04:45;;;;;;;3.78;3.00;;;;;;;18.17;100.00;99225.28;5073054;28;20047;-86
2023/07/31 00:07:10;;;;;;;5.10;3.50;;;;;;;17.98;100.00;99201.44;5072614;28;20036;-86
2023/07/31 00:09:36;;;;;;;3.85;3.28;;;;;;;18.09;100.00;99219.81;5072703;28;20032;-85
2023/07/31 00:12:02;;;;;;;4.28;3.63;;;;;;;18.09;100.00;99236.47;5072684;28;20261;-86
2023/07/31 00:14:27;;;;;;;4.57;3.30;;;;;;;18.10;100.00;99235.50;5072706;28;20036;-86
2023/07/31 00:16:53;;;;;;;3.85;3.45;;;;;;;18.02;100.00;99219.50;5055783;28;20028;-86
2023/07/31 00:19:18;;;;;;;3.58;3.15;;;;;;;18.08;100.00;99234.81;5088882;28;20032;-86
2023/07/31 00:21:44;;;;;;;3.92;3.50;;;;;;;18.02;100.00;99224.75;5095123;28;20521;-86
2023/07/31 00:24:09;;;;;;;3.90;3.35;;;;;;;18.00;100.00;99217.97;5095220;28;20028;-86
2023/07/31 00:26:35;;;;;;;3.90;3.45;;;;;;;17.84;100.00;99199.97;5094921;28;20027;-86
2023/07/31 00:29:00;;;;;;;4.07;3.20;;;;;;;17.72;100.00;99178.09;5094877;28;20115;-85
2023/07/31 00:31:25;;;;;;;5.78;3.10;;;;;;;17.77;100.00;99206.72;5094865;28;20028;-85
2023/07/31 00:33:51;;;;;;;6.07;3.33;;;;;;;17.94;100.00;99233.31;5094931;28;20466;-86
2023/07/31 00:36:17;;;;;;;3.80;2.92;;;;;;;17.94;100.00;99238.56;5094822;28;20044;-85
2023/07/31 00:38:43;;;;;;;3.80;3.20;;;;;;;17.63;100.00;99182.31;5076592;28;20020;-85
2023/07/31 00:41:08;;;;;;;4.75;3.28;;;;;;;17.75;100.00;99206.84;5094970;28;20119;-86
2023/07/31 00:43:33;;;;;;;5.20;3.60;;;;;;;17.78;100.00;99224.19;5094409;28;20105;-86
2023/07/31 00:45:59;;;;;;;4.80;3.67;;;;;;;17.45;100.00;99183.88;5076860;28;20493;-86
2023/07/31 00:48:25;;;;;;;5.15;3.42;;;;;;;17.52;100.00;99192.06;5076363;28;20035;-86
2023/07/31 00:50:50;;;;;;;5.43;3.53;;;;;;;17.74;100.00;99233.25;5076476;28;20112;-85
2023/07/31 00:53:16;;;;;;;4.65;2.90;;;;;;;17.59;100.00;99220.41;5094625;28;20123;-85
2023/07/31 00:55:42;;;;;;;5.22;3.55;;;;;;;17.62;100.00;99238.59;5076575;28;20133;-86
2023/07/31 00:58:08;;;;;;;5.93;3.80;;;;;;;17.68;100.00;99234.63;5076550;28;20032;-86
2023/07/31 01:00:33;;;;;;;3.42;3.13;;;;;;;17.67;100.00;99233.78;5076227;28;20390;-86
2023/07/31 01:02:58;;;;;;;7.28;3.90;;;;;;;17.48;100.00;99209.09;5094531;28;20122;-86
2023/07/31 01:05:35;;;;;;;5.72;3.40;;;;;;;17.71;100.00;99242.28;5076061;28;20026;-86
2023/07/31 01:08:15;;;;;;;6.30;3.78;;;;;;;17.58;100.00;99226.66;5076425;28;20050;-85
2023/07/31 01:10:53;;;;;;;4.07;3.67;;;;;;;17.52;100.00;99215.78;5094419;28;20099;-85
2023/07/31 01:13:19;;;;;;;5.13;3.67;;;;;;;17.46;100.00;99215.31;5242685;22;20446;-86
2023/07/31 01:15:44;;;;;;;5.90;4.03;;;;;;;17.54;100.00;99234.94;5053973;28;20031;-86
2023/07/31 01:18:09;;;;;;;7.90;3.50;;;;;;;17.54;100.00;99240.19;5053830;28;20033;-85
2023/07/31 01:20:36;;;;;;;7.13;4.05;;;;;;;17.53;100.00;99238.50;5053586;28;20028;-85
2023/07/31 01:23:37;;;;;;;4.07;3.58;;;;;;;17.55;100.00;99241.84;5036041;28;20049;-86
2023/07/31 01:26:11;;;;;;;5.90;3.85;;;;;;;17.60;100.00;99251.03;4992385;28;20061;-85
2023/07/31 01:29:00;;;;;;;4.32;3.47;;;;;;;17.49;100.00;99235.31;4991804;28;20038;-85
2023/07/31 01:31:28;;;;;;;4.18;3.10;;;;;;;17.25;100.00;99188.13;4991865;28;20046;-86
2023/07/31 01:33:59;;;;;;;4.13;3.45;;;;;;;17.57;100.00;99245.19;4992166;28;20039;-86
2023/07/31 01:36:25;;;;;;;4.53;4.05;;;;;;;17.51;100.00;99235.16;4991605;28;20031;-85
2023/07/31 01:38:51;;;;;;;6.28;4.18;;;;;;;17.54;100.00;99246.28;4975314;28;20707;-84
2023/07/31 01:41:17;;;;;;;3.60;3.28;;;;;;;17.49;100.00;99232.69;4975145;28;20536;-86
2023/07/31 01:43:43;;;;;;;3.95;3.60;;;;;;;17.37;100.00;99223.16;5007673;28;20129;-86
2023/07/31 01:46:08;;;;;;;3.60;3.30;;;;;;;17.40;100.00;99228.13;5011380;28;20022;-86
2023/07/31 01:48:36;;;;;;;4.07;3.50;;;;;;;17.50;100.00;99241.41;5011163;28;20160;-86
2023/07/31 01:51:02;;;;;;;4.63;3.58;;;;;;;17.24;100.00;99210.16;5011313;28;20045;-87
2023/07/31 01:53:28;;;;;;;5.93;3.60;;;;;;;17.41;100.00;99240.38;5011006;28;20037;-86
2023/07/31 01:55:53;;;;;;;4.15;3.38;;;;;;;17.31;100.00;99223.63;5011275;28;20481;-86
2023/07/31 01:58:18;;;;;;;3.72;3.35;;;;;;;17.40;100.00;99238.66;4990968;28;20045;-86
2023/07/31 02:00:44;;;;;;;8.07;3.65;;;;;;;17.31;100.00;99229.72;4974938;28;20057;-86
2023/07/31 02:03:09;;;;;;;4.75;3.53;;;;;;;17.13;100.00;99204.91;5016179;28;20080;-86
2023/07/31 02:05:34;;;;;;;6.15;3.47;;;;;;;17.19;100.00;99228.06;5030714;28;20021;-85
2023/07/31 02:08:00;;;;;;;3.95;3.53;;;;;;;17.19;100.00;99230.72;5030887;28;20037;-86
2023/07/31 02:10:25;;;;;;;5.22;3.67;;;;;;;17.12;100.00;99240.91;5030780;28;20052;-86
2023/07/31 02:12:50;;;;;;;3.40;3.10;;;;;;;17.09;100.00;99240.31;5030687;28;20060;-86
2023/07/31 02:15:16;;;;;;;5.40;3.60;;;;;;;16.87;100.00;99210.47;5031207;28;20480;-86
2023/07/31 02:17:41;;;;;;;5.63;3.60;;;;;;;16.94;100.00;99230.06;5031695;28;20072;-86
2023/07/31 02:20:07;;;;;;;4.63;3.00;;;;;;;16.89;100.00;99228.75;5031756;28;20038;-86
2023/07/31 02:22:32;;;;;;;6.28;3.50;;;;;;;16.86;100.00;99243.00;5014854;28;20033;-86
2023/07/31 02:24:57;;;;;;;4.63;3.65;;;;;;;16.64;100.00;99216.66;5014441;28;20064;-86
2023/07/31 02:27:27;;;;;;;3.60;3.15;;;;;;;16.57;100.00;99211.06;5014143;28;20029;-86
2023/07/31 02:29:52;;;;;;;6.40;3.20;;;;;;;16.52;100.00;99213.22;5047144;28;20045;-86
2023/07/31 02:32:17;;;;;;;6.47;3.75;;;;;;;16.66;100.00;99247.16;5053299;28;20033;-86
2023/07/31 02:34:43;;;;;;;5.55;3.80;;;;;;;16.55;100.00;99238.41;5034946;28;20471;-86
2023/07/31 02:37:08;;;;;;;5.00;3.45;;;;;;;16.26;100.00;99199.44;5053052;28;20090;-86
2023/07/31 02:39:33;;;;;;;6.85;3.50;;;;;;;16.45;100.00;99244.38;5034269;28;20017;-86
2023/07/31 02:42:00;;;;;;;6.03;3.30;;;;;;;16.19;100.00;99200.91;5034526;28;20036;-86
2023/07/31 02:44:25;;;;;;;6.03;3.70;;;;;;;16.23;100.00;99204.13;5052695;28;20372;-87
2023/07/31 02:46:50;;;;;;;4.97;3.38;;;;;;;16.28;100.00;99231.72;5034669;28;20028;-86
2023/07/31 02:49:16;;;;;;;4.47;3.33;;;;;;;16.17;100.00;99206.25;5034518;28;20498;-86
2023/07/31 02:51:41;;;;;;;5.07;3.90;;;;;;;16.27;100.00;99231.84;5034339;28;20546;-86
2023/07/31 02:54:06;;;;;;;5.55;3.58;;;;;;;16.10;100.00;99210.31;5033779;28;20404;-86
2023/07/31 02:56:32;;;;;;;5.10;3.28;;;;;;;15.90;100.00;99177.69;5052092;28;20460;-86
2023/07/31 02:58:57;;;;;;;4.72;3.70;;;;;;;16.21;100.00;99233.13;5052247;28;20569;-86
2023/07/31 03:01:22;;;;;;;6.32;3.47;;;;;;;15.93;100.00;99197.63;5052477;28;20033;-86
2023/07/31 03:03:48;;;;;;;4.53;3.40;;;;;;;16.03;100.00;99224.88;5034484;28;20052;-86
2023/07/31 03:06:13;;;;;;;3.92;3.10;;;;;;;16.08;100.00;99229.78;5034562;28;20021;-86
2023/07/31 03:08:38;;;;;;;7.10;3.35;;;;;;;16.11;100.00;99232.16;5052239;28;20033;-86
2023/07/31 03:11:04;;;;;;;7.03;4.10;;;;;;;16.05;100.00;99230.00;5052329;28;20468;-86
2023/07/31 03:13:29;;;;;;;7.50;4.03;;;;;;;16.08;100.00;99235.84;5052286;28;20049;-86
2023/07/31 03:15:54;;;;;;;4.22;3.38;;;;;;;15.98;100.00;99223.56;5034715;28;20467;-86
2023/07/31 03:18:19;;;;;;;4.43;3.25;;;;;;;15.83;100.00;99202.72;5052483;28;20465;-85
2023/07/31 03:20:45;;;;;;;5.07;3.20;;;;;;;15.79;100.00;99189.94;5034185;28;20036;-85
2023/07/31 03:23:10;;;;;;;7.60;3.45;;;;;;;16.04;100.00;99233.59;5052240;28;20029;-85
2023/07/31 03:25:37;;;;;;;4.43;3.53;;;;;;;16.00;100.00;99234.75;5052162;28;20106;-86
2023/07/31 03:28:02;;;;;;;6.43;3.60;;;;;;;15.94;100.00;99217.69;5034350;28;20626;-86
2023/07/31 03:30:27;;;;;;;4.85;3.75;;;;;;;15.93;100.00;99224.75;5051788;28;20059;-85
2023/07/31 03:32:53;;;;;;;4.80;3.53;;;;;;;16.05;100.00;99240.50;5051710;28;20076;-86
2023/07/31 03:35:18;;;;;;;6.50;3.72;;;;;;;16.06;100.00;99240.41;5033783;28;20021;-86
2023/07/31 03:37:43;;;;;;;4.75;3.53;;;;;;;16.06;100.00;99243.03;5033715;28;20068;-85
2023/07/31 03:40:09;;;;;;;4.47;3.10;;;;;;;15.87;100.00;99201.53;5033903;28;20483;-86
2023/07/31 03:42:35;;;;;;;6.00;3.80;;;;;;;15.88;100.00;99210.25;5051260;28;20681;-86
2023/07/31 03:45:00;;;;;;;5.35;3.42;;;;;;;15.86;100.00;99209.56;5051997;28;20021;-86
2023/07/31 03:47:26;;;;;;;7.75;4.00;;;;;;;15.99;100.00;99231.31;5033829;28;20115;-86
2023/07/31 03:49:51;;;;;;;3.53;3.10;;;;;;;15.90;100.00;99206.56;5052040;28;20387;-86
2023/07/31 03:52:17;;;;;;;6.35;3.40;;;;;;;16.00;100.00;99219.00;5033946;28;20025;-86
2023/07/31 03:54:44;;;;;;;5.80;3.92;;;;;;;16.10;100.00;99236.59;5052287;28;20451;-85
2023/07/31 03:57:10;;;;;;;4.00;3.60;;;;;;;16.11;100.00;99235.63;5034196;28;20028;-86
2023/07/31 03:59:35;;;;;;;5.47;3.50;;;;;;;16.06;100.00;99221.19;5051756;28;20040;-86
2023/07/31 04:02:00;;;;;;;4.00;3.15;;;;;;;16.13;100.00;99231.09;5034114;28;20527;-85
2023/07/31 04:04:26;;;;;;;9.63;4.57;;;;;;;16.21;100.00;99236.59;5035291;28;20021;-85
2023/07/31 04:06:51;;;;;;;4.75;3.70;;;;;;;15.97;100.00;99199.09;5055595;28;20357;-85
2023/07/31 04:09:16;;;;;;;5.97;3.85;;;;;;;16.07;100.00;99196.59;5038152;28;20024;-86
2023/07/31 04:11:42;;;;;;;4.57;3.90;;;;;;;16.07;100.00;99192.16;5037974;28;20029;-85
2023/07/31 04:14:07;;;;;;;8.85;4.32;;;;;;;16.28;100.00;99223.84;5056164;28;20052;-86
2023/07/31 04:16:32;;;;;;;7.90;4.75;;;;;;;16.18;100.00;99205.31;5055984;28;20040;-86
2023/07/31 04:18:57;;;;;;;5.00;4.05;;;;;;;16.15;100.00;99194.19;5057212;28;20040;-87
2023/07/31 04:21:23;;;;;;;5.57;3.67;;;;;;;16.28;100.00;99204.59;5037898;28;20036;-87
2023/07/31 04:23:48;;;;;;;7.03;3.78;;;;;;;16.41;100.00;99221.09;5055231;28;20060;-85
2023/07/31 04:26:14;;;;;;;6.15;3.83;;;;;;;16.50;100.00;99230.06;5056931;28;20088;-86
2023/07/31 04:28:39;;;;;;;8.43;4.40;;;;;;;16.55;100.00;99234.00;5057007;28;20059;-86
2023/07/31 04:31:04;;;;;;;5.68;3.70;;;;;;;16.61;100.00;99240.59;5039147;28;20078;-86
2023/07/31 04:33:29;;;;;;;7.38;4.20;;;;;;;16.63;100.00;99230.78;5039165;28;20021;-86
2023/07/31 04:35:55;;;;;;;5.30;3.75;;;;;;;16.49;100.00;99202.09;5057718;28;20021;-86
2023/07/31 04:38:21;;;;;;;9.73;4.40;;;;;;;16.63;100.00;99226.34;5040304;28;20029;-86
2023/07/31 04:40:47;;;;;;;6.25;3.83;;;;;;;16.60;100.00;99215.22;5071004;28;20025;-86
2023/07/31 04:43:12;;;;;;;7.20;4.20;;;;;;;16.70;100.00;99231.97;5053759;28;20116;-86
2023/07/31 04:45:38;;;;;;;6.38;3.95;;;;;;;16.79;100.00;99243.59;5053534;28;20017;-86
2023/07/31 04:48:03;;;;;;;5.47;3.58;;;;;;;16.86;100.00;99245.63;5071780;28;20025;-86
2023/07/31 04:50:30;;;;;;;5.75;3.92;;;;;;;16.84;100.00;99236.16;5070923;28;20479;-86
2023/07/31 04:52:55;;;;;;;4.18;3.78;;;;;;;16.99;100.00;99239.38;5066520;28;20017;-86
2023/07/31 04:55:21;;;;;;;4.38;3.22;;;;;;;17.18;100.00;99240.41;5037843;28;20025;-85
2023/07/31 04:57:46;;;;;;;3.53;3.22;;;;;;;17.11;100.00;99196.31;5036799;28;20048;-86
2023/07/31 05:00:12;;;;;;;4.65;3.47;;;;;;;17.44;100.00;99229.56;5054270;28;20071;-85
2023/07/31 05:02:37;;;;;;;8.13;3.63;;;;;;;17.44;100.00;99229.56;5054181;28;20479;-86
2023/07/31 05:05:02;;;;;;;4.53;3.63;;;;;;;17.45;100.00;99220.72;5054304;28;20083;-86
2023/07/31 05:07:28;;;;;;;6.72;4.15;;;;;;;17.57;100.00;99240.78;5036419;28;20021;-86
2023/07/31 05:09:53;;;;;;;7.47;3.83;;;;;;;17.60;100.00;99244.94;5036414;28;20041;-86
2023/07/31 05:12:18;;;;;;;6.63;3.50;;;;;;;17.44;100.00;99222.53;5036466;28;20027;-86
2023/07/31 05:14:44;;;;;;;6.07;3.38;;;;;;;17.50;100.00;99229.06;5036236;28;20035;-86
2023/07/31 05:17:09;;;;;;;6.32;3.42;;;;;;;17.29;100.00;99189.53;5053141;28;20029;-86
2023/07/31 05:19:34;;;;;;;5.97;3.65;;;;;;;17.51;100.00;99235.16;5053527;28;20025;-86
2023/07/31 05:22:00;;;;;;;7.95;4.30;;;;;;;17.55;100.00;99234.78;5053798;28;20048;-86
2023/07/31 05:24:25;;;;;;;6.93;3.47;;;;;;;17.59;100.00;99232.75;5054040;28;20020;-86
2023/07/31 05:26:50;;;;;;;5.90;3.65;;;;;;;17.53;100.00;99220.06;5053635;28;20040;-86
2023/07/31 05:29:16;;;;;;;6.25;4.05;;;;;;;17.50;100.00;99213.28;5054120;28;20055;-86
2023/07/31 05:31:41;;;;;;;6.90;3.83;;;;;;;17.49;100.00;99200.22;5035709;28;20033;-85
2023/07/31 05:34:07;;;;;;;7.68;3.33;;;;;;;17.59;100.00;99214.31;5053683;28;20575;-85
2023/07/31 05:36:32;;;;;;;7.15;3.83;;;;;;;17.76;100.00;99234.84;5035169;28;20082;-86
2023/07/31 05:38:57;;;;;;;7.05;3.78;;;;;;;17.57;100.00;99208.31;5053795;28;20025;-86
2023/07/31 05:41:23;;;;;;;6.07;3.83;;;;;;;17.58;100.00;99218.75;5055337;28;20093;-86
2023/07/31 05:43:48;;;;;;;5.47;3.53;;;;;;;17.37;100.00;99204.72;5036063;28;20024;-86
2023/07/31 05:46:13;;;;;;;5.72;4.53;;;;;;;17.34;100.00;99204.97;5054239;28;20032;-86
2023/07/31 05:48:39;;;;;;;11.90;4.07;;;;;;;17.43;100.00;99225.25;5038275;28;20167;-86
2023/07/31 05:51:04;;;;;;;9.55;3.50;;;;;;;17.36;100.00;99226.72;5054787;28;20123;-86
2023/07/31 05:53:29;;;;;;;9.25;5.10;;;;;;;17.17;100.00;99201.91;5036968;28;20040;-86
2023/07/31 05:55:55;;;;;;;7.00;4.20;;;;;;;17.16;100.00;99188.88;5036343;28;20031;-86
2023/07/31 05:58:20;;;;;;;5.75;4.00;;;;;;;17.50;100.00;99222.97;5053707;28;20052;-86
2023/07/31 06:00:45;;;;;;;5.88;3.42;;;;;;;17.33;100.00;99187.50;5035365;28;20458;-86
2023/07/31 06:03:11;;;;;;;6.43;4.30;;;;;;;17.51;100.00;99203.56;5035377;28;20463;-86
2023/07/31 06:05:36;;;;;;;7.97;4.38;;;;;;;17.68;100.00;99216.19;5035481;28;20029;-86
2023/07/31 06:08:01;;;;;;;8.32;3.83;;;;;;;17.85;100.00;99223.53;5035341;28;20024;-86
2023/07/31 06:10:28;;;;;;;7.82;5.30;;;;;;;17.94;100.00;99232.47;5035434;28;20095;-86
2023/07/31 06:12:53;;;;;;;5.65;3.78;;;;;;;17.94;100.00;99216.66;5035549;28;20055;-86
2023/07/31 06:15:19;;;;;;;11.07;4.03;;;;;;;18.10;100.00;99232.88;5053244;28;20103;-86
2023/07/31 06:17:45;;;;;;;4.50;3.45;;;;;;;17.94;100.00;99190.31;5034964;28;20475;-86
2023/07/31 06:20:10;;;;;;;3.85;3.47;;;;;;;18.06;100.00;99191.09;5035642;28;20115;-86
2023/07/31 06:22:36;;;;;;;5.85;3.58;;;;;;;18.26;100.00;99211.31;5035022;28;20021;-86
2023/07/31 06:25:01;;;;;;;9.85;4.40;;;;;;;18.16;100.00;99187.56;5035438;28;20660;-86
2023/07/31 06:27:27;;;;;;;6.72;3.75;;;;;;;18.38;100.00;99212.06;5035094;28;20028;-86
2023/07/31 06:29:52;;;;;;;5.40;3.85;;;;;;;18.63;100.00;99237.16;5053090;28;20055;-86
2023/07/31 06:32:17;;;;;;;9.38;4.35;;;;;;;18.65;100.00;99229.94;5054137;28;20029;-86
2023/07/31 06:34:43;;;;;;;6.72;4.05;;;;;;;18.72;100.00;99231.13;5052857;28;20100;-86
2023/07/31 06:37:08;;;;;;;6.13;3.92;;;;;;;18.88;100.00;99233.28;5034965;28;20464;-86
2023/07/31 06:39:33;;;;;;;5.43;4.07;;;;;;;18.94;100.00;99238.81;5034992;28;20112;-86
2023/07/31 06:41:58;;;;;;;6.60;4.30;;;;;;;18.98;100.00;99241.19;5052984;28;20049;-86
2023/07/31 06:44:24;;;;;;;7.40;4.15;;;;;;;18.97;100.00;99247.47;5052705;28;20025;-88
2023/07/31 06:46:50;;;;;;;6.15;4.65;;;;;;;18.89;100.00;99217.28;5035334;28;20024;-85
2023/07/31 06:49:16;;;;;;;5.82;4.50;;;;;;;18.73;100.00;99208.22;5034660;28;20029;-86
2023/07/31 06:51:42;;;;;;;5.70;3.75;;;;;;;18.77;100.00;99213.09;5053700;28;20033;-86
2023/07/31 06:54:08;;;;;;;6.50;3.92;;;;;;;18.99;100.00;99248.97;5036953;28;20071;-85
2023/07/31 06:56:33;;;;;;;7.55;3.85;;;;;;;18.78;100.00;99196.28;5054421;28;20029;-85
2023/07/31 06:58:59;;;;;;;4.57;3.67;;;;;;;18.96;100.00;99199.09;5054251;28;20021;-85
2023/07/31 07:01:24;;;;;;;7.63;3.88;;;;;;;19.18;100.00;99229.72;5037335;28;20025;-85
2023/07/31 07:03:50;;;;;;;5.85;3.22;;;;;;;19.39;100.00;99232.25;5036759;28;20031;-85
2023/07/31 07:06:16;;;;;;;4.95;3.83;;;;;;;19.41;100.00;99231.13;5054076;28;20029;-85
2023/07/31 07:08:42;;;;;;;6.13;3.75;;;;;;;19.57;100.00;99232.38;5035998;28;20102;-85
2023/07/31 07:11:07;;;;;;;6.22;3.25;;;;;;;19.64;100.00;99217.69;5053246;28;20037;-86
2023/07/31 07:13:32;;;;;;;5.85;3.30;;;;;;;19.72;100.00;99222.25;5031208;28;20137;-86
2023/07/31 07:15:58;;;;;;;5.72;3.05;;;;;;;19.74;100.00;99188.63;5032236;28;20089;-85
2023/07/31 07:18:24;;;;;;;4.70;2.90;;;;;;;20.26;100.00;99205.75;5034940;28;20108;-85
2023/07/31 07:20:51;;;;;;;5.32;3.13;;;;;;;20.75;100.00;99210.88;5032730;28;20491;-86
2023/07/31 07:23:16;;;;;;;4.20;3.30;;;;;;;21.20;100.00;99199.47;5033329;28;20108;-86
2023/07/31 07:25:43;;;;;;;5.30;2.63;;;;;;;21.62;98.73;99227.06;5031813;28;20126;-86
2023/07/31 07:28:08;;;;;;;6.13;3.20;;;;;;;21.85;96.37;99208.84;5031679;28;20030;-86
2023/07/31 07:30:34;;;;;;;3.63;2.50;;;;;;;22.10;95.61;99187.81;5032376;28;20365;-85
2023/07/31 07:33:00;;;;;;;4.90;2.78;;;;;;;23.01;91.95;99214.66;5034947;28;20100;-86
2023/07/31 07:35:25;;;;;;;6.40;2.70;;;;;;;24.31;88.82;99205.06;5034744;28;20035;-86
2023/07/31 07:37:50;;;;;;;8.43;3.15;;;;;;;25.58;80.67;99210.16;5033921;28;20044;-86
2023/07/31 07:40:16;;;;;;;5.05;2.53;;;;;;;26.49;78.62;99194.13;5036776;28;20025;-86
2023/07/31 07:42:41;;;;;;;6.03;2.63;;;;;;;26.90;75.36;99201.66;5037148;28;20104;-86
2023/07/31 07:45:07;;;;;;;4.72;2.53;;;;;;;26.69;74.58;99210.44;5036857;28;20028;-86
2023/07/31 07:47:32;;;;;;;9.20;3.33;;;;;;;26.06;73.79;99178.72;5037386;28;20064;-86
2023/07/31 07:49:58;;;;;;;4.43;2.45;;;;;;;25.75;74.61;99204.69;5040165;28;20029;-87
2023/07/31 07:52:23;;;;;;;3.83;2.22;;;;;;;25.25;76.63;99174.06;5036714;28;20071;-87
2023/07/31 07:54:48;;;;;;;5.13;2.60;;;;;;;25.25;77.28;99212.22;5035876;28;20034;-90
2023/07/31 07:57:14;;;;;;;5.65;2.45;;;;;;;24.85;77.44;99203.38;5036572;28;20025;-88
2023/07/31 07:59:40;;;;;;;4.32;2.53;;;;;;;24.47;78.64;99196.22;5038333;28;20025;-87
2023/07/31 08:02:05;;;;;;;5.90;2.90;;;;;;;23.90;78.29;99163.41;5041190;28;20033;-88
2023/07/31 08:04:31;;;;;;;4.32;2.70;;;;;;;23.92;77.35;99205.78;5046429;28;20132;-89
2023/07/31 08:06:56;;;;;;;4.55;2.53;;;;;;;23.60;78.04;99201.31;5046854;28;20025;-89
2023/07/31 08:09:21;;;;;;;4.60;2.28;;;;;;;23.47;79.20;99203.59;5046122;28;20064;-88
2023/07/31 08:11:47;;;;;;;4.63;2.40;;;;;;;23.46;80.30;99204.59;5035380;28;20025;-88
2023/07/31 08:14:12;;;;;;;3.17;2.83;;;;;;;23.24;81.66;99161.72;5035210;28;20559;-87
2023/07/31 08:16:37;;;;;;;4.50;2.63;;;;;;;23.31;80.65;99159.25;5035229;28;20500;-89
2023/07/31 08:19:02;;;;;;;3.80;2.58;;;;;;;23.50;81.23;99166.88;5034102;28;20388;-88
2023/07/31 08:21:28;;;;;;;3.53;2.35;;;;;;;23.95;81.41;99196.66;5035863;28;20025;-89
2023/07/31 08:23:53;;;;;;;3.60;2.63;;;;;;;23.98;80.66;99167.06;5036154;28;20038;-89
2023/07/31 08:26:19;;;;;;;4.40;2.60;;;;;;;24.14;78.40;99177.66;5036823;28;20108;-88
2023/07/31 08:28:44;;;;;;;4.05;2.30;;;;;;;24.43;78.26;99198.41;5035007;28;20112;-90
2023/07/31 08:31:10;;;;;;;3.45;2.20;;;;;;;24.48;78.54;99197.88;5034971;28;20040;-89
2023/07/31 08:33:36;;;;;;;4.55;2.40;;;;;;;24.38;78.98;99216.72;5034705;28;20648;-91
2023/07/31 08:36:02;;;;;;;3.88;2.45;;;;;;;24.13;79.97;99215.91;5035121;28;20232;-88
2023/07/31 08:39:07;;;;;;;4.53;2.30;;;;;;;23.88;81.75;99215.94;5037197;28;20038;-93
2023/07/31 08:42:26;;;;;;;3.60;2.10;;;;;;;23.12;81.94;99171.84;5018280;28;20049;-94
2023/07/31 08:44:53;;;;;;;5.35;2.35;;;;;;;23.00;82.95;99204.19;4997484;28;20544;-93
2023/07/31 08:47:20;;;;;;;3.80;2.42;;;;;;;22.69;84.97;99188.78;4981459;28;20060;-86
2023/07/31 08:49:49;;;;;;;6.30;2.60;;;;;;;22.69;86.13;99218.00;5001032;28;20058;-85
2023/07/31 08:52:59;;;;;;;7.25;2.67;;;;;;;22.53;86.77;99212.59;5000143;28;20022;-86
2023/07/31 08:55:25;;;;;;;4.63;2.85;;;;;;;22.22;87.75;99183.09;4967552;28;20058;-86
2023/07/31 08:57:54;;;;;;;5.22;2.70;;;;;;;22.02;88.58;99164.72;4937174;29;20043;-85
2023/07/31 09:00:21;;;;;;;3.97;2.65;;;;;;;22.13;88.61;99204.28;4937246;29;20403;-85
2023/07/31 09:02:57;;;;;;;3.28;2.38;;;;;;;21.94;89.38;99196.47;4955891;29;20042;-85
2023/07/31 09:05:23;;;;;;;3.47;2.47;;;;;;;21.72;89.01;99183.72;4933303;29;20418;-85
2023/07/31 09:07:50;;;;;;;4.35;2.80;;;;;;;21.61;88.94;99182.13;4935297;29;20035;-85
2023/07/31 09:10:15;;;;;;;2.30;2.08;;;;;;;21.60;89.03;99207.81;4935718;29;20048;-85
2023/07/31 09:12:41;;;;;;;3.55;2.38;;;;;;;21.07;88.79;99141.56;4935177;29;20083;-86
2023/07/31 09:15:08;;;;;;;3.67;2.28;;;;;;;21.14;89.04;99161.16;4956938;29;20090;-85
2023/07/31 09:17:36;;;;;;;3.00;2.30;;;;;;;21.13;88.82;99186.81;4957020;29;20488;-85
2023/07/31 09:20:15;;;;;;;3.97;2.53;;;;;;;21.14;88.75;99203.53;4956289;28;20478;-86
2023/07/31 09:22:41;;;;;;;3.25;2.50;;;;;;;21.11;88.89;99214.41;4983066;28;20046;-85
2023/07/31 09:25:24;;;;;;;5.50;2.60;;;;;;;20.96;89.09;99221.22;4995229;28;20143;-85
2023/07/31 09:27:54;;;;;;;3.78;2.75;;;;;;;20.85;88.25;99231.00;4995426;28;20072;-85
2023/07/31 09:30:20;;;;;;;5.70;2.63;;;;;;;20.73;88.90;99226.06;4993837;28;20039;-85
2023/07/31 09:32:47;;;;;;;5.28;2.85;;;;;;;20.62;89.06;99233.22;4993482;28;20154;-85
2023/07/31 09:35:27;;;;;;;3.47;2.25;;;;;;;20.46;90.14;99232.97;4996243;28;20061;-85
2023/07/31 09:37:56;;;;;;;3.67;2.65;;;;;;;20.48;90.52;99235.44;5033546;28;20038;-85
2023/07/31 09:40:28;;;;;;;3.85;2.45;;;;;;;20.52;91.50;99244.81;5017649;28;20048;-84
2023/07/31 09:42:57;;;;;;;2.50;2.03;;;;;;;20.50;91.35;99242.31;5018081;28;20055;-85
2023/07/31 09:45:23;;;;;;;2.72;2.22;;;;;;;20.13;91.64;99198.13;5033980;28;20033;-84
2023/07/31 09:47:48;;;;;;;4.22;2.40;;;;;;;20.10;92.31;99201.06;5031656;28;20038;-85
2023/07/31 09:50:15;;;;;;;3.42;2.30;;;;;;;20.16;93.01;99212.88;5015618;28;20463;-84
2023/07/31 09:52:41;;;;;;;2.70;2.30;;;;;;;19.99;92.92;99195.09;5018994;28;20040;-85
2023/07/31 09:55:07;;;;;;;4.57;2.65;;;;;;;19.98;93.37;99202.22;5020960;28;20492;-85
2023/07/31 09:57:33;;;;;;;3.08;2.42;;;;;;;20.14;94.09;99243.91;5037940;28;20077;-85
2023/07/31 09:59:59;;;;;;;2.55;2.20;;;;;;;19.85;94.38;99199.88;5040514;28;20030;-85
2023/07/31 10:02:26;;;;;;;3.10;2.40;;;;;;;19.98;95.50;99223.34;5048470;28;20134;-86
2023/07/31 10:04:56;;;;;;;2.55;2.28;;;;;;;19.99;95.74;99227.66;5032870;28;20359;-85
2023/07/31 10:07:25;;;;;;;2.90;2.20;;;;;;;19.90;96.49;99223.22;5026372;28;20044;-84
2023/07/31 10:09:51;;;;;;;2.75;2.28;;;;;;;19.90;96.87;99216.13;5034238;28;20546;-84
2023/07/31 10:12:19;;;;;;;4.20;2.75;;;;;;;19.88;97.58;99207.50;5033098;28;20531;-84
2023/07/31 10:14:44;;;;;;;3.63;2.63;;;;;;;19.93;97.99;99199.13;5031589;28;20034;-85
2023/07/31 10:17:11;;;;;;;3.20;2.72;;;;;;;19.96;98.00;99200.66;5032264;28;20455;-84
2023/07/31 10:19:36;;;;;;;3.90;2.47;;;;;;;20.09;98.11;99217.88;5031981;28;20068;-85
2023/07/31 10:22:03;;;;;;;2.55;2.20;;;;;;;19.83;98.69;99167.44;5031785;28;20057;-84
2023/07/31 10:24:29;;;;;;;5.20;2.47;;;;;;;20.19;98.79;99212.59;5032155;28;20033;-84
2023/07/31 10:26:58;;;;;;;2.78;2.47;;;;;;;20.08;98.58;99166.00;5031055;28;20389;-84
2023/07/31 10:29:24;;;;;;;3.40;2.17;;;;;;;20.57;98.68;99216.94;5014221;28;20036;-84
2023/07/31 10:31:51;;;;;;;4.13;2.40;;;;;;;20.71;97.22;99215.63;5034825;28;20409;-83
2023/07/31 10:34:17;;;;;;;4.50;2.55;;;;;;;20.82;94.55;99214.63;5033290;28;20025;-84
2023/07/31 10:36:42;;;;;;;4.55;2.45;;;;;;;20.90;93.33;99217.34;5033787;28;20029;-84
2023/07/31 10:39:39;;;;;;;3.00;2.28;;;;;;;21.02;92.11;99233.84;5032760;28;20449;-84
2023/07/31 10:42:12;;;;;;;2.65;2.10;;;;;;;20.85;92.43;99216.94;5031482;28;20017;-84
2023/07/31 10:44:37;;;;;;;6.90;6.20;;;;;;;20.78;92.86;99232.59;5033110;28;20471;-84
2023/07/31 10:47:03;;;;;;;4.75;2.10;;;;;;;20.58;94.14;99201.91;5032456;28;20114;-84
2023/07/31 10:49:31;;;;;;;2.83;2.17;;;;;;;20.64;95.33;99201.31;5033618;28;20029;-84
2023/07/31 10:51:57;;;;;;;4.05;2.95;;;;;;;20.74;95.77;99211.88;5034096;28;20030;-84
2023/07/31 10:54:22;;;;;;;2.20;2.00;;;;;;;20.73;96.08;99208.38;5033259;28;20035;-84
2023/07/31 10:56:50;;;;;;;2.97;2.40;;;;;;;20.66;95.20;99202.84;5032513;28;20051;-85
2023/07/31 10:59:17;;;;;;;3.83;2.28;;;;;;;20.55;96.29;99195.09;5035303;28;20017;-84
2023/07/31 11:01:53;;;;;;;3.30;2.38;;;;;;;20.56;96.88;99193.25;5033031;28;20100;-84
2023/07/31 11:04:26;;;;;;;2.83;2.50;;;;;;;20.34;96.86;99157.41;5016697;28;20160;-84
2023/07/31 11:06:57;;;;;;;3.40;2.40;;;;;;;20.53;97.16;99172.41;5033885;28;20056;-85
2023/07/31 11:09:22;;;;;;;2.83;2.50;;;;;;;20.68;98.23;99170.94;5015502;28;20029;-84
2023/07/31 11:11:50;;;;;;;3.45;2.30;;;;;;;20.78;96.39;99125.91;5014464;28;20532;-83
2023/07/31 11:14:15;;;;;;;2.63;2.33;;;;;;;21.30;95.76;99158.66;5030639;28;20045;-85
2023/07/31 11:16:41;;;;;;;2.90;2.60;;;;;;;21.65;94.59;99157.00;5015663;28;20045;-85
2023/07/31 11:19:08;;;;;;;2.67;2.35;;;;;;;21.89;93.51;99127.19;5015385;28;20414;-84
2023/07/31 11:21:34;;;;;;;3.90;2.72;;;;;;;22.25;91.56;99149.13;5015170;28;20029;-83
2023/07/31 11:23:59;;;;;;;3.92;2.38;;;;;;;22.52;90.36;99145.44;5030773;28;20025;-84
2023/07/31 11:26:25;;;;;;;4.40;2.45;;;;;;;22.65;88.88;99127.22;5033469;28;20033;-85
2023/07/31 11:28:50;;;;;;;4.30;2.20;;;;;;;22.99;86.69;99150.25;5032824;28;20029;-85